Aeroporto :
LOGIN :

Iscrizione | Disclaimer

   EN    FR    IT 

 










Sommario :    VFR   VFR Marginale   IFR   IFR Intensivo   IFR Molto Intensivo
Visibilità : 
Base nubi : 
>= 8 km
>= 3000ft
5 / 8 km
1000 / 3000 ft
1500m / 5 km
500 / 1000 ft
800 / 1500m
200 / 500 ft
< 800m
< 200 ft
Simboli :   Temporali  Nebbia  Neve Forte  Precipitazioni Forti  Vento > 20 kt
SIGMETs :   Varie  Temporali  Ghiacco  Turbolenza  Onda orograficha  Ceneri Vulcaniche






- Altitudine del aeroporto : 55 ft
- Codice IATA : DSA


EGCN - Robin Hood Doncaster Sheffield

ULTIMO METAR :
  • 111720Z 28009KT CAVOK 17/07 Q1027

METARs OBSOLETI :
  • 111650Z 28012KT 9999 FEW045 17/07 Q1027
  • 111620Z 27012KT 9999 SCT042 18/08 Q1028
  • 111550Z 28012KT 9999 SCT041 17/08 Q1028
  • 111520Z 30011KT 250V320 9999 FEW048 17/07 Q1027
  • 111450Z 30010KT 270V330 9999 FEW040 SCT048 18/08 Q1027

TAF TAF EGCN
Valido dal 11 a 12 ore il 12 a 12 ore UTC


111057Z 1112/1212 30008KT 9999 SCT030
PROB30
TEMPO 1112/1116 8000 -SHRA
PROB40 1200/1206 8000



MetMap, La meteo Aeronautica in un colpo d'occhio ! - Copyright ORBIFLY Dicembre 2007 - Disclaimer

ORBIFLY MET'MAP TEAM :

Programmazione e sviluppo : Alexandra Zaïnal
Concezione : Baudouin d'Aumeries
Aiuto per la programmazione : Marc-Olivier Méhu
Supporto tecnico e logistico : Manuel Goepfert
Aiuto per la traduzione : Arnaldo La Scala

Contatto : metmap@orbifly.com




FONTI E CREDITI :

   NOAA